createdAt,value
2018-05-03T00:01:16.525Z,12.77
2018-05-03T00:03:42.396Z,12.17
2018-05-03T00:06:08.284Z,14.50
2018-05-03T00:08:34.133Z,14.60
2018-05-03T00:11:00.006Z,13.30
2018-05-03T00:13:25.856Z,12.57
2018-05-03T00:15:51.758Z,12.77
2018-05-03T00:18:17.733Z,12.20
2018-05-03T00:20:43.593Z,12.87
2018-05-03T00:23:09.449Z,12.23
2018-05-03T00:25:35.275Z,13.87
2018-05-03T00:28:01.103Z,14.70
2018-05-03T00:30:26.961Z,14.97
2018-05-03T00:32:52.808Z,15.07
2018-05-03T00:35:18.683Z,14.93
2018-05-03T00:37:44.532Z,17.70
2018-05-03T00:40:10.349Z,17.07
2018-05-03T00:42:36.208Z,16.67
2018-05-03T00:45:02.080Z,19.00
2018-05-03T00:47:27.966Z,17.23
2018-05-03T00:49:53.807Z,18.20
2018-05-03T00:52:19.672Z,17.40
2018-05-03T00:54:47.565Z,21.00
2018-05-03T00:57:13.470Z,20.37
2018-05-03T00:59:39.334Z,20.90
2018-05-03T01:02:05.213Z,21.03
2018-05-03T01:04:31.059Z,19.50
2018-05-03T01:06:56.888Z,22.53
2018-05-03T01:09:22.767Z,19.40
2018-05-03T01:11:48.644Z,21.50
2018-05-03T01:14:14.520Z,23.13
2018-05-03T01:16:40.393Z,22.23
2018-05-03T01:19:06.256Z,23.37
2018-05-03T01:21:32.114Z,23.27
2018-05-03T01:23:57.976Z,22.63
2018-05-03T01:26:23.805Z,23.30
2018-05-03T01:28:49.664Z,23.63
2018-05-03T01:31:15.532Z,21.50
2018-05-03T01:33:41.371Z,23.67
2018-05-03T01:36:19.628Z,23.30
2018-05-03T01:38:45.500Z,21.20
2018-05-03T01:41:11.369Z,23.60
2018-05-03T01:43:37.213Z,24.27
2018-05-03T01:46:03.091Z,22.73
2018-05-03T01:48:28.971Z,23.03
2018-05-03T01:50:54.848Z,22.93
2018-05-03T01:53:20.704Z,21.33
2018-05-03T01:55:46.560Z,23.50
2018-05-03T01:58:12.429Z,23.10
2018-05-03T02:00:38.314Z,22.00
2018-05-03T02:03:04.192Z,21.27
2018-05-03T02:05:30.049Z,20.47
2018-05-03T02:07:55.916Z,21.37
2018-05-03T02:10:21.745Z,20.73
2018-05-03T02:12:47.569Z,20.50
2018-05-03T02:15:13.429Z,19.70
2018-05-03T02:17:39.322Z,20.90
2018-05-03T02:20:05.180Z,21.07
2018-05-03T02:22:31.073Z,20.30
2018-05-03T02:24:56.933Z,21.60
2018-05-03T02:27:22.777Z,21.40
2018-05-03T02:29:48.629Z,21.20
2018-05-03T02:32:14.450Z,21.30
2018-05-03T02:34:40.359Z,22.80
2018-05-03T02:37:06.209Z,21.57
2018-05-03T02:39:32.063Z,20.13
2018-05-03T02:41:57.905Z,20.93
2018-05-03T02:44:23.780Z,21.17
2018-05-03T02:46:49.642Z,19.77
2018-05-03T02:49:15.475Z,21.10
2018-05-03T02:51:41.350Z,20.40
2018-05-03T02:54:07.209Z,18.87
2018-05-03T02:56:33.058Z,21.60
2018-05-03T02:59:11.393Z,18.67
2018-05-03T03:01:56.447Z,18.83
2018-05-03T03:04:40.862Z,17.90
2018-05-03T03:10:52.981Z,19.33
2018-05-03T03:13:35.272Z,19.33
2018-05-03T03:16:19.640Z,20.10
2018-05-03T03:19:04.105Z,19.07
2018-05-03T03:21:48.639Z,21.00
2018-05-03T03:24:33.071Z,20.10
2018-05-03T03:30:31.940Z,19.47
2018-05-03T03:33:10.109Z,21.40
2018-05-03T03:39:05.236Z,22.10
2018-05-03T03:41:37.196Z,23.43
2018-05-03T03:44:15.431Z,22.63
2018-05-03T03:46:42.221Z,23.30
2018-05-03T03:49:08.520Z,22.83
2018-05-03T03:51:34.399Z,25.33
2018-05-03T03:54:00.239Z,25.00
2018-05-03T03:56:26.097Z,22.70
2018-05-03T03:58:51.925Z,24.20
2018-05-03T04:01:17.777Z,25.27
2018-05-03T04:03:43.641Z,24.80
2018-05-03T04:06:09.508Z,27.77
2018-05-03T04:08:35.347Z,25.10
2018-05-03T04:11:01.209Z,25.97
2018-05-03T04:13:27.104Z,25.13
2018-05-03T04:15:52.976Z,25.13
2018-05-03T04:18:31.127Z,24.77
2018-05-03T04:21:09.182Z,23.13
2018-05-03T04:23:47.305Z,24.37
2018-05-03T04:26:13.158Z,26.20
2018-05-03T04:28:39.041Z,23.93
2018-05-03T04:31:04.897Z,25.33
2018-05-03T04:33:30.776Z,26.17
2018-05-03T04:35:56.586Z,24.37
2018-05-03T04:38:22.456Z,24.30
2018-05-03T04:40:48.316Z,23.93
2018-05-03T04:43:14.152Z,25.50
2018-05-03T04:45:40.025Z,24.30
2018-05-03T04:48:05.855Z,25.40
2018-05-03T04:50:31.830Z,23.83
2018-05-03T04:52:57.699Z,22.90
2018-05-03T04:55:23.585Z,22.10
2018-05-03T04:57:49.413Z,24.57
2018-05-03T05:00:15.298Z,23.17
2018-05-03T05:02:41.141Z,21.63
2018-05-03T05:05:06.968Z,22.20
2018-05-03T05:07:32.829Z,25.47
2018-05-03T05:09:58.711Z,22.17
2018-05-03T05:12:24.593Z,24.03
2018-05-03T05:14:50.456Z,23.20
2018-05-03T05:17:16.325Z,23.20
2018-05-03T05:19:42.185Z,23.83
2018-05-03T05:22:08.040Z,22.30
2018-05-03T05:24:33.882Z,23.73
2018-05-03T05:26:59.759Z,22.10
2018-05-03T05:29:25.643Z,19.77
2018-05-03T05:31:51.493Z,22.37
2018-05-03T05:34:17.360Z,20.67
2018-05-03T05:36:43.211Z,20.60
2018-05-03T05:39:09.097Z,21.30
2018-05-03T05:41:34.960Z,19.23
2018-05-03T05:44:00.883Z,17.60
2018-05-03T05:46:26.725Z,18.97
2018-05-03T05:48:52.580Z,18.80
2018-05-03T05:51:18.452Z,17.40
2018-05-03T05:53:44.307Z,18.67
2018-05-03T05:56:10.161Z,18.30
2018-05-03T05:58:35.984Z,18.90
2018-05-03T06:01:01.846Z,18.37
2018-05-03T06:03:27.665Z,17.03
2018-05-03T06:05:53.533Z,17.83
2018-05-03T06:08:19.364Z,17.13
2018-05-03T06:10:45.243Z,16.80
2018-05-03T06:13:11.096Z,16.30
2018-05-03T06:15:36.984Z,15.60
2018-05-03T06:18:02.856Z,17.40
2018-05-03T06:20:28.713Z,17.93
2018-05-03T06:22:54.564Z,19.13
2018-05-03T06:25:20.408Z,20.00
2018-05-03T06:27:46.263Z,18.57
2018-05-03T06:30:12.111Z,17.47
2018-05-03T06:32:37.994Z,17.87
2018-05-03T06:35:03.926Z,18.30
2018-05-03T06:37:29.785Z,18.20
2018-05-03T06:39:55.652Z,18.20
2018-05-03T06:42:21.511Z,18.10
2018-05-03T06:44:47.381Z,17.20
2018-05-03T06:47:13.269Z,15.07
2018-05-03T06:49:39.110Z,15.67
2018-05-03T06:52:04.987Z,14.30
2018-05-03T06:54:30.837Z,12.80
2018-05-03T06:56:56.680Z,12.63
2018-05-03T06:59:22.538Z,12.93
2018-05-03T07:01:48.380Z,12.37
2018-05-03T07:04:14.276Z,11.53
2018-05-03T07:06:40.095Z,11.47
2018-05-03T07:09:05.932Z,11.40
2018-05-03T07:11:31.817Z,11.60
2018-05-03T07:13:57.693Z,13.17
2018-05-03T07:16:23.616Z,10.30
2018-05-03T07:18:49.401Z,10.97
2018-05-03T07:21:15.245Z,11.10
2018-05-03T07:23:41.112Z,10.67
2018-05-03T07:26:07.013Z,11.40
2018-05-03T07:28:32.837Z,10.97
2018-05-03T07:30:58.724Z,12.30
2018-05-03T07:33:24.593Z,12.50
2018-05-03T07:35:50.481Z,11.40
2018-05-03T07:38:16.332Z,12.53
2018-05-03T07:40:42.259Z,11.77
2018-05-03T07:43:08.031Z,11.70
2018-05-03T07:45:33.873Z,12.60
2018-05-03T07:47:59.707Z,11.83
2018-05-03T07:50:25.569Z,11.40
2018-05-03T07:52:51.425Z,11.93
2018-05-03T07:55:17.295Z,12.57
2018-05-03T07:57:43.140Z,12.17
2018-05-03T08:00:09.007Z,12.90
2018-05-03T08:02:34.864Z,13.00
2018-05-03T08:05:00.745Z,11.37
2018-05-03T08:07:26.594Z,10.10
2018-05-03T08:09:52.438Z,11.37
2018-05-03T08:12:18.284Z,12.20
2018-05-03T08:14:44.095Z,11.10
2018-05-03T08:17:10.054Z,13.40
2018-05-03T08:19:35.801Z,12.50
2018-05-03T08:22:01.653Z,10.80
2018-05-03T08:24:27.511Z,10.50
2018-05-03T08:26:53.347Z,10.20
2018-05-03T08:29:19.193Z,10.80
2018-05-03T08:31:45.037Z,9.63
2018-05-03T08:34:10.909Z,8.40
2018-05-03T08:36:36.809Z,9.80
2018-05-03T08:39:02.735Z,9.10
2018-05-03T08:41:28.601Z,10.50
2018-05-03T08:43:54.492Z,10.17
2018-05-03T08:46:20.341Z,8.10
2018-05-03T08:48:46.213Z,7.40
2018-05-03T08:51:12.044Z,7.60
2018-05-03T08:53:37.908Z,8.10
2018-05-03T08:56:03.781Z,8.67
2018-05-03T08:58:29.605Z,8.87
2018-05-03T09:00:55.506Z,8.70
2018-05-03T09:03:21.319Z,8.00
2018-05-03T09:05:47.157Z,6.90
2018-05-03T09:08:13.008Z,9.37
2018-05-03T09:10:38.849Z,8.07
2018-05-03T09:13:04.693Z,8.00
2018-05-03T09:15:30.541Z,7.30
2018-05-03T09:17:56.424Z,7.93
2018-05-03T09:20:22.269Z,7.10
2018-05-03T09:22:48.156Z,7.50
2018-05-03T09:25:13.985Z,7.30
2018-05-03T09:27:39.893Z,7.03
2018-05-03T09:30:05.709Z,7.10
2018-05-03T09:32:31.529Z,7.20
2018-05-03T09:34:57.369Z,6.87
2018-05-03T09:37:23.221Z,7.10
2018-05-03T09:39:49.069Z,6.00
2018-05-03T09:42:14.916Z,5.90
2018-05-03T09:44:40.840Z,7.23
2018-05-03T09:47:06.608Z,6.80
2018-05-03T09:49:32.432Z,6.37
2018-05-03T09:51:58.267Z,7.33
2018-05-03T09:54:24.089Z,6.00
2018-05-03T09:56:49.941Z,5.77
2018-05-03T09:59:15.773Z,5.60
2018-05-03T10:01:41.673Z,5.33
2018-05-03T10:04:07.569Z,4.83
2018-05-03T10:06:33.430Z,5.27
2018-05-03T10:08:59.267Z,5.70
2018-05-03T10:11:25.105Z,5.57
2018-05-03T10:13:50.946Z,5.77
2018-05-03T10:16:16.824Z,5.57
2018-05-03T10:18:42.664Z,5.53
2018-05-03T10:21:08.530Z,6.00
2018-05-03T10:23:34.356Z,7.23
2018-05-03T10:26:00.220Z,6.00
2018-05-03T10:28:26.073Z,5.63
2018-05-03T10:30:51.920Z,6.40
2018-05-03T10:33:17.759Z,5.90
2018-05-03T10:35:43.703Z,6.07
2018-05-03T10:38:09.491Z,5.20
2018-05-03T10:40:35.328Z,5.60
2018-05-03T10:43:01.213Z,6.60
2018-05-03T10:45:27.076Z,5.80
2018-05-03T10:47:52.927Z,6.93
2018-05-03T10:50:18.767Z,6.57
2018-05-03T10:52:44.648Z,6.40
2018-05-03T10:55:10.496Z,5.50
2018-05-03T10:57:36.368Z,6.47
2018-05-03T11:00:02.273Z,6.17
2018-05-03T11:02:28.104Z,6.40
2018-05-03T11:04:53.916Z,7.60
2018-05-03T11:07:19.794Z,5.57
2018-05-03T11:09:45.633Z,6.57
2018-05-03T11:12:11.495Z,7.10
2018-05-03T11:14:37.353Z,6.10
2018-05-03T11:17:03.211Z,6.60
2018-05-03T11:19:29.074Z,6.87
2018-05-03T11:21:54.922Z,7.87
2018-05-03T11:24:20.776Z,7.30
2018-05-03T11:26:46.605Z,6.00
2018-05-03T11:29:12.481Z,6.20
2018-05-03T11:31:38.362Z,6.60
2018-05-03T11:34:04.273Z,6.80
2018-05-03T11:36:30.140Z,6.60
2018-05-03T11:38:55.981Z,6.87
2018-05-03T11:41:21.856Z,8.00
2018-05-03T11:43:47.730Z,7.70
2018-05-03T11:46:13.620Z,8.60
2018-05-03T11:48:39.456Z,7.73
2018-05-03T11:51:05.400Z,7.50
2018-05-03T11:53:31.280Z,8.63
2018-05-03T11:55:57.131Z,7.33
2018-05-03T11:58:22.984Z,7.93
2018-05-03T12:00:48.876Z,7.00
2018-05-03T12:03:14.733Z,8.10
2018-05-03T12:05:40.613Z,6.73
2018-05-03T12:08:06.456Z,7.40
2018-05-03T12:10:32.291Z,6.90
2018-05-03T12:12:58.149Z,7.43
2018-05-03T12:15:23.985Z,8.23
2018-05-03T12:17:49.831Z,7.00
2018-05-03T12:20:15.683Z,7.53
2018-05-03T12:22:41.550Z,6.83
2018-05-03T12:25:07.393Z,7.97
2018-05-03T12:27:33.238Z,6.80
2018-05-03T12:29:59.065Z,5.80
2018-05-03T12:32:24.918Z,6.60
2018-05-03T12:34:50.852Z,6.03
2018-05-03T12:37:16.613Z,5.00
2018-05-03T12:39:42.450Z,5.00
2018-05-03T12:42:08.284Z,5.73
2018-05-03T12:44:34.145Z,6.83
2018-05-03T12:46:59.995Z,6.70
2018-05-03T12:49:25.884Z,6.30
2018-05-03T12:51:51.830Z,6.70
2018-05-03T12:54:17.626Z,6.50
2018-05-03T12:56:43.490Z,6.57
2018-05-03T12:59:09.373Z,7.43
2018-05-03T13:01:35.253Z,6.50
2018-05-03T13:04:01.124Z,6.53
2018-05-03T13:06:26.995Z,6.20
2018-05-03T13:08:52.829Z,6.77
2018-05-03T13:11:18.686Z,7.00
2018-05-03T13:13:44.525Z,7.27
2018-05-03T13:16:10.401Z,6.00
2018-05-03T13:18:36.293Z,7.73
2018-05-03T13:21:02.165Z,6.17
2018-05-03T13:23:28.030Z,6.23
2018-05-03T13:25:53.992Z,6.50
2018-05-03T13:28:19.845Z,6.30
2018-05-03T13:30:45.690Z,6.93
2018-05-03T13:33:11.529Z,6.17
2018-05-03T13:35:37.354Z,6.43
2018-05-03T13:38:03.204Z,6.30
2018-05-03T13:40:29.042Z,5.67
2018-05-03T13:42:54.920Z,5.67
2018-05-03T13:45:20.778Z,7.20
2018-05-03T13:47:46.659Z,6.10
2018-05-03T13:50:12.502Z,5.43
2018-05-03T13:52:38.369Z,5.53
2018-05-03T13:55:04.377Z,5.70
2018-05-03T13:57:30.247Z,5.90
2018-05-03T13:59:56.111Z,5.87
2018-05-03T14:02:21.975Z,4.53
2018-05-03T14:04:47.844Z,4.67
2018-05-03T14:07:13.750Z,5.83
2018-05-03T14:09:39.614Z,4.50
2018-05-03T14:12:05.472Z,5.60
2018-05-03T14:14:31.357Z,6.53
2018-05-03T14:16:57.251Z,4.47
2018-05-03T14:19:23.090Z,5.00
2018-05-03T14:21:48.936Z,6.03
2018-05-03T14:24:14.773Z,5.77
2018-05-03T14:26:40.621Z,6.00
2018-05-03T14:29:06.483Z,6.60
2018-05-03T14:31:32.345Z,6.50
2018-05-03T14:33:58.185Z,6.77
2018-05-03T14:36:23.959Z,6.63
2018-05-03T14:38:49.849Z,6.30
2018-05-03T14:41:15.741Z,6.77
2018-05-03T14:43:41.586Z,6.40
2018-05-03T14:46:07.475Z,6.83
2018-05-03T14:48:35.843Z,7.10
2018-05-03T14:51:05.043Z,6.73
2018-05-03T14:53:33.629Z,6.30
2018-05-03T14:56:01.906Z,6.00
2018-05-03T14:58:29.985Z,6.27
2018-05-03T15:00:58.481Z,6.83
2018-05-03T15:03:27.015Z,6.60
2018-05-03T15:05:56.111Z,5.80
2018-05-03T15:08:24.729Z,6.50
2018-05-03T15:10:50.741Z,6.30
2018-05-03T15:13:16.676Z,7.03
2018-05-03T15:15:42.517Z,6.50
2018-05-03T15:18:08.440Z,6.70
2018-05-03T15:20:34.301Z,6.30
2018-05-03T15:23:00.194Z,7.10
2018-05-03T15:25:26.082Z,5.90
2018-05-03T15:27:51.965Z,5.10
2018-05-03T15:30:17.864Z,5.47
2018-05-03T15:32:43.757Z,5.67
2018-05-03T15:35:09.682Z,6.73
2018-05-03T15:37:35.601Z,7.10
2018-05-03T15:40:01.485Z,6.73
2018-05-03T15:42:27.392Z,6.57
2018-05-03T15:44:53.362Z,8.13
2018-05-03T15:47:19.201Z,7.50
2018-05-03T15:49:45.184Z,7.47
2018-05-03T15:52:11.165Z,8.57
2018-05-03T15:54:37.025Z,8.27
2018-05-03T15:57:02.937Z,8.13
2018-05-03T15:59:28.855Z,8.30
2018-05-03T16:01:54.708Z,8.50
2018-05-03T16:04:20.548Z,9.97
2018-05-03T16:06:46.426Z,9.10
2018-05-03T16:09:12.317Z,9.30
2018-05-03T16:11:38.180Z,8.90
2018-05-03T16:14:04.053Z,9.30
2018-05-03T16:16:29.910Z,10.20
2018-05-03T16:18:55.844Z,9.60
2018-05-03T16:21:21.710Z,9.70
2018-05-03T16:23:47.575Z,10.90
2018-05-03T16:26:13.402Z,10.20
2018-05-03T16:28:39.274Z,10.90
2018-05-03T16:31:05.233Z,11.13
2018-05-03T16:33:31.112Z,9.53
2018-05-03T16:35:56.965Z,10.30
2018-05-03T16:38:22.799Z,9.93
2018-05-03T16:40:48.755Z,9.90
2018-05-03T16:43:14.537Z,9.57
2018-05-03T16:45:40.446Z,10.40
2018-05-03T16:48:06.263Z,9.67
2018-05-03T16:50:32.104Z,10.03
2018-05-03T16:52:57.975Z,12.57
2018-05-03T16:55:23.873Z,12.80
2018-05-03T16:57:49.729Z,15.37
2018-05-03T17:00:15.701Z,13.27
2018-05-03T17:02:41.569Z,13.00
2018-05-03T17:05:07.446Z,12.70
2018-05-03T17:07:33.330Z,11.80
2018-05-03T17:09:59.187Z,13.03
2018-05-03T17:12:25.059Z,13.90
2018-05-03T17:14:50.924Z,12.83
2018-05-03T17:17:16.857Z,12.97
2018-05-03T17:19:42.742Z,13.77
2018-05-03T17:22:08.598Z,12.03
2018-05-03T17:24:34.487Z,12.23
2018-05-03T17:27:00.413Z,15.83
2018-05-03T17:29:26.240Z,16.87
2018-05-03T17:31:52.085Z,17.73
2018-05-03T17:34:17.956Z,17.80
2018-05-03T17:36:43.851Z,16.60
2018-05-03T17:39:09.812Z,18.27
2018-05-03T17:41:35.653Z,18.47
2018-05-03T17:44:01.530Z,17.90
2018-05-03T17:46:27.371Z,16.20
2018-05-03T17:48:53.256Z,18.63
2018-05-03T17:51:19.223Z,21.80
2018-05-03T17:53:45.041Z,19.97
2018-05-03T17:56:10.935Z,19.20
2018-05-03T17:58:36.832Z,17.40
2018-05-03T18:01:02.773Z,18.20
2018-05-03T18:03:28.667Z,19.60
2018-05-03T18:05:54.548Z,18.50
2018-05-03T18:08:20.468Z,15.87
2018-05-03T18:10:46.354Z,20.17
2018-05-03T18:13:12.346Z,18.70
2018-05-03T18:15:38.248Z,19.73
2018-05-03T18:18:04.130Z,19.43
2018-05-03T18:20:30.014Z,18.60
2018-05-03T18:22:55.953Z,16.83
2018-05-03T18:25:21.844Z,17.17
2018-05-03T18:27:47.735Z,16.33
2018-05-03T18:30:13.615Z,15.93
2018-05-03T18:32:39.552Z,18.23
2018-05-03T18:35:05.425Z,15.67
2018-05-03T18:37:31.301Z,16.70
2018-05-03T18:39:57.189Z,16.07
2018-05-03T18:42:23.044Z,15.17
2018-05-03T18:44:48.873Z,16.43
2018-05-03T18:47:14.782Z,15.57
2018-05-03T18:49:40.646Z,15.87
2018-05-03T18:52:06.511Z,15.70
2018-05-03T18:54:32.413Z,16.90
2018-05-03T18:56:58.259Z,15.40
2018-05-03T18:59:24.127Z,15.27
2018-05-03T19:01:50.005Z,13.90
2018-05-03T19:04:15.929Z,13.80
2018-05-03T19:06:41.810Z,13.60
2018-05-03T19:09:07.716Z,13.47
2018-05-03T19:11:33.883Z,12.30
2018-05-03T19:13:59.789Z,13.43
2018-05-03T19:16:25.697Z,12.73
2018-05-03T19:18:51.584Z,11.83
2018-05-03T19:21:17.445Z,11.93
2018-05-03T19:23:43.407Z,13.13
2018-05-03T19:26:09.218Z,13.87
2018-05-03T19:28:35.103Z,13.80
2018-05-03T19:31:01.040Z,15.73
2018-05-03T19:33:26.936Z,12.77
2018-05-03T19:35:52.777Z,13.00
2018-05-03T19:38:18.654Z,10.73
2018-05-03T19:40:44.553Z,14.53
2018-05-03T19:43:10.458Z,16.50
2018-05-03T19:45:36.396Z,13.83
2018-05-03T19:48:02.282Z,14.03
2018-05-03T19:50:28.202Z,14.27
2018-05-03T19:52:54.051Z,12.50
2018-05-03T19:55:19.927Z,12.40
2018-05-03T19:57:45.754Z,11.40
2018-05-03T20:00:11.617Z,13.60
2018-05-03T20:02:44.336Z,13.73
2018-05-03T20:05:10.192Z,13.27
2018-05-03T20:07:36.074Z,12.50
2018-05-03T20:10:01.983Z,12.60
2018-05-03T20:12:27.960Z,13.03
2018-05-03T20:14:53.867Z,11.90
2018-05-03T20:17:19.778Z,12.80
2018-05-03T20:19:45.668Z,11.00
2018-05-03T20:22:11.555Z,11.63
2018-05-03T20:24:37.402Z,12.43
2018-05-03T20:27:03.264Z,12.43
2018-05-03T20:29:29.140Z,12.07
2018-05-03T20:31:55.000Z,11.60
2018-05-03T20:34:20.874Z,11.70
2018-05-03T20:36:46.702Z,11.70
2018-05-03T20:39:12.606Z,10.70
2018-05-03T20:41:38.446Z,12.20
2018-05-03T20:44:04.304Z,10.37
2018-05-03T20:46:30.152Z,12.20
2018-05-03T20:48:56.000Z,10.93
2018-05-03T20:51:21.841Z,11.50
2018-05-03T20:53:47.713Z,11.00
2018-05-03T20:56:13.603Z,12.83
2018-05-03T20:58:39.441Z,12.77
2018-05-03T21:01:05.284Z,11.80
2018-05-03T21:03:31.144Z,11.60
2018-05-03T21:05:57.022Z,11.30
2018-05-03T21:08:22.870Z,10.70
2018-05-03T21:10:48.712Z,11.10
2018-05-03T21:13:14.579Z,12.20
2018-05-03T21:15:40.451Z,10.30
2018-05-03T21:18:06.326Z,11.30
2018-05-03T21:20:32.157Z,10.67
2018-05-03T21:22:58.001Z,11.00
2018-05-03T21:25:23.829Z,11.50
2018-05-03T21:27:49.665Z,11.17
2018-05-03T21:30:15.518Z,11.77
2018-05-03T21:32:41.396Z,10.40
2018-05-03T21:35:07.232Z,10.70
2018-05-03T21:37:33.181Z,11.67
2018-05-03T21:39:58.964Z,10.67
2018-05-03T21:42:24.777Z,10.10
2018-05-03T21:44:50.612Z,10.30
2018-05-03T21:47:16.452Z,11.73
2018-05-03T21:49:42.297Z,11.00
2018-05-03T21:52:08.236Z,10.00
2018-05-03T21:54:34.100Z,10.37
2018-05-03T21:56:59.951Z,10.17
2018-05-03T21:59:25.812Z,10.67
2018-05-03T22:01:51.661Z,10.23
2018-05-03T22:04:17.536Z,9.70
2018-05-03T22:06:43.366Z,10.33
2018-05-03T22:09:09.269Z,10.30
2018-05-03T22:11:35.092Z,9.70
2018-05-03T22:14:01.045Z,9.80
2018-05-03T22:16:26.804Z,10.27
2018-05-03T22:18:52.671Z,9.70
2018-05-03T22:21:18.537Z,10.87
2018-05-03T22:23:44.378Z,10.50
2018-05-03T22:26:10.232Z,10.13
2018-05-03T22:28:36.058Z,9.37
2018-05-03T22:31:01.921Z,10.10
2018-05-03T22:33:27.778Z,9.13
2018-05-03T22:35:53.632Z,8.80
2018-05-03T22:38:19.501Z,9.97
2018-05-03T22:40:45.401Z,10.57
2018-05-03T22:43:11.225Z,10.07
2018-05-03T22:45:37.092Z,9.60
2018-05-03T22:48:02.950Z,8.87
2018-05-03T22:50:28.769Z,9.37
2018-05-03T22:52:54.605Z,8.30
2018-05-03T22:55:20.469Z,8.77
2018-05-03T22:57:46.330Z,9.30
2018-05-03T23:00:12.212Z,8.50
2018-05-03T23:02:38.061Z,8.73
2018-05-03T23:05:03.902Z,8.60
2018-05-03T23:07:29.773Z,9.47
2018-05-03T23:09:55.675Z,7.73
2018-05-03T23:12:21.553Z,9.60
2018-05-03T23:14:47.405Z,10.57
2018-05-03T23:17:13.265Z,9.97
2018-05-03T23:19:39.161Z,9.87
2018-05-03T23:22:05.013Z,9.33
2018-05-03T23:24:30.860Z,10.60
2018-05-03T23:26:56.725Z,9.40
2018-05-03T23:29:22.552Z,9.20
2018-05-03T23:31:48.386Z,11.10
2018-05-03T23:34:14.249Z,9.43
2018-05-03T23:36:40.094Z,9.20
2018-05-03T23:39:05.917Z,8.23
2018-05-03T23:41:31.784Z,9.80
2018-05-03T23:43:57.637Z,10.03
2018-05-03T23:46:23.480Z,8.63
2018-05-03T23:48:49.344Z,8.70
2018-05-03T23:51:15.208Z,9.10
2018-05-03T23:53:41.052Z,8.63
2018-05-03T23:56:06.890Z,8.47
2018-05-03T23:58:32.713Z,10.33
